首页
METAR-TAF:

METAR-TAF

机场 :

Hilton Head Airport

Hilton Head Island, 南卡罗来纳州, 美国

纬度: 32-13N, 经度: 080-42W, 海拔: 6米

当前天气观测

该预报发布于26分钟前的10:35 UTC
风速13节,风向,有时为19节阵风,在西北北转东北之间变化
温度 11°C
湿度 94%
气压 1014 hPa
能見度: 14.5公里
阴天层高于600英尺
小毛毛雨

METAR: KHXD 151035Z AUTO 36013G19KT 320V020 9SM -DZ OVC006 11/10 A2994 RMK AO2

时间: 06:01 (11:01 UTC)


TAF: 丢失

超过4000个机场的气象观测和天气预报(METAR&TAF报告)。

可查询的气象台以黄色和红色小点在地图上表示。

将鼠标移到小点上方,可查看气象台名称。

然后点击查看天气观测和预报。

如需切换地图:点击带黑十字的绿色按钮放大地图;点击带横线的绿色按钮缩小地图;或者点击绿色箭头查看邻近地区的地图。


METAR-TAF: